Dana Pride — WE00 — position and weather

sailwx.info

Track history (hours):
 
Tides and Currents Weather Stations Pressure Air Temp Water Temp Dewpoint Dewpoint Depression Visibility Wind Speed Wind Dir Waves Ship Positions

Dana Pride

Last reported at 2018-Jun-20 16:49 UTC. Time now 2018-Jun-20 17:22 UTC.
Position N 33°28' W 117°42'.

Type: Fishing. MMSI: 366849310.

Date/timePositionNaut miles runAvg speedWind from/ knotsBaromVisibWave heightAir tempDewpointWater temp
2018-Jun-20 16:49N 33°28' W 117°42'0 0.0
2018-Jun-20 16:25N 33°28' W 117°42'0 0.0
2018-Jun-20 08:06N 33°28' W 117°42'0 0.0
2018-Jun-20 05:53N 33°28' W 117°42'0 0.0
2018-Jun-20 05:13N 33°28' W 117°42'0 0.0
2018-Jun-20 04:08N 33°28' W 117°42'0 0.0
2018-Jun-20 03:56N 33°28' W 117°42'0 0.0
2018-Jun-20 03:27N 33°28' W 117°42'0 0.0
2018-Jun-20 02:59N 33°28' W 117°42'0 0.0
2018-Jun-20 02:24N 33°28' W 117°42'3 1.6
2018-Jun-20 00:30N 33°26' W 117°45'2 0.7
2018-Jun-19 21:24N 33°27' W 117°42'5 3.7
2018-Jun-19 20:11N 33°23' W 117°45'1 5.0
2018-Jun-19 19:59N 33°23' W 117°43'4 7.0
2018-Jun-19 19:29N 33°26' W 117°43'2 0.8
2018-Jun-19 16:59N 33°28' W 117°42'2 0.1
2018-Jun-18 21:50N 33°26' W 117°40'3 9.6
2018-Jun-18 21:30N 33°23' W 117°38'4 7.1
2018-Jun-18 21:00N 33°21' W 117°34'0 0.0
2018-Jun-18 20:30N 33°21' W 117°34'0 0.1
2018-Jun-18 20:00N 33°21' W 117°34'3 5.3
2018-Jun-18 19:30N 33°19' W 117°32'0 0.1
2018-Jun-18 19:00N 33°19' W 117°32'0 0.0
2018-Jun-18 18:30N 33°19' W 117°32'0 0.1
2018-Jun-18 18:00N 33°19' W 117°32'2 4.3
2018-Jun-18 17:30N 33°21' W 117°34'0 0.1
2018-Jun-18 17:00N 33°21' W 117°34'0 0.0
2018-Jun-18 16:30N 33°21' W 117°34'0 0.0
2018-Jun-18 16:00N 33°21' W 117°34'0 0.2
2018-Jun-18 15:30N 33°21' W 117°34'0 0.0
2018-Jun-18 15:00N 33°21' W 117°34'0 0.4
2018-Jun-18 14:30N 33°21' W 117°34'4 7.1
2018-Jun-18 14:00N 33°23' W 117°38'6 5.6
2018-Jun-18 12:59N 33°28' W 117°42'0 0.0
2018-Jun-18 12:10N 33°28' W 117°42'0 0.0
2018-Jun-18 11:55N 33°28' W 117°42'0 0.0
2018-Jun-18 11:24N 33°28' W 117°42'0 0.0
2018-Jun-18 10:58N 33°28' W 117°42'0 0.0
2018-Jun-18 10:30N 33°28' W 117°42'0 0.0
2018-Jun-18 09:59N 33°28' W 117°42'0 0.0
2018-Jun-18 09:26N 33°28' W 117°42'0 0.0
2018-Jun-18 08:56N 33°28' W 117°42'0 0.0
2018-Jun-18 08:29N 33°28' W 117°42'0 0.0
2018-Jun-18 08:00N 33°28' W 117°42'0 0.0
2018-Jun-18 07:17N 33°28' W 117°42'0 0.0
2018-Jun-18 07:00N 33°28' W 117°42'0 0.0
2018-Jun-18 05:43N 33°28' W 117°42'0 0.0
2018-Jun-18 05:25N 33°28' W 117°42'0 0.0
2018-Jun-18 04:53N 33°28' W 117°42'0 0.0
2018-Jun-18 04:29N 33°28' W 117°42'0 0.0
2018-Jun-18 03:56N 33°28' W 117°42'0 0.0
2018-Jun-18 03:30N 33°28' W 117°42'0 0.8
2018-Jun-18 02:56N 33°27' W 117°42'3 0.1
2018-Jun-16 23:31N 33°26' W 117°39'0 0.0
2018-Jun-16 23:30N 33°26' W 117°39'0 0.1
2018-Jun-16 22:56N 33°26' W 117°39'0 0.1
2018-Jun-16 22:23N 33°26' W 117°39'4 3.6
2018-Jun-16 21:23N 33°27' W 117°43'1 0.6
2018-Jun-16 19:23N 33°26' W 117°42'1 3.2
2018-Jun-16 18:56N 33°28' W 117°42'0 0.0
2018-Jun-16 13:41N 33°28' W 117°42'0 0.0
2018-Jun-16 13:29N 33°28' W 117°42'0 0.0
2018-Jun-16 12:59N 33°28' W 117°42'0 0.0
2018-Jun-16 12:29N 33°28' W 117°42'0 0.0
2018-Jun-16 12:00N 33°28' W 117°42'0 0.0
2018-Jun-16 11:29N 33°28' W 117°42'0 0.0
2018-Jun-16 11:00N 33°28' W 117°42'0 0.0
2018-Jun-16 10:28N 33°28' W 117°42'0 0.0
2018-Jun-16 09:51N 33°28' W 117°42'0 0.0
2018-Jun-16 09:21N 33°28' W 117°42'0 0.0
2018-Jun-16 08:45N 33°28' W 117°42'0 0.0
2018-Jun-16 02:29N 33°28' W 117°42'1 0.9
2018-Jun-16 01:48N 33°27' W 117°42'2 6.2
2018-Jun-16 01:30N 33°27' W 117°44'2 2.1
2018-Jun-16 00:46N 33°27' W 117°46'1 4.5
2018-Jun-16 00:30N 33°27' W 117°45'3 5.1
2018-Jun-16 00:00N 33°28' W 117°42'0 0.0
2018-Jun-15 23:13N 33°28' W 117°42'0 0.0
2018-Jun-15 23:00N 33°28' W 117°42'2 1.0
2018-Jun-15 21:16N 33°26' W 117°43'2 1.7
2018-Jun-15 20:15N 33°25' W 117°43'1 2.8
2018-Jun-15 19:43N 33°24' W 117°42'3 7.6
2018-Jun-15 19:20N 33°27' W 117°41'1 0.7
2018-Jun-15 17:16N 33°26' W 117°43'2 0.5
2018-Jun-15 13:35N 33°28' W 117°42'0 0.0
2018-Jun-15 13:14N 33°28' W 117°42'0 0.0
2018-Jun-15 12:40N 33°28' W 117°42'0 0.0
2018-Jun-15 12:13N 33°28' W 117°42'0 0.0
2018-Jun-15 11:48N 33°28' W 117°42'0 0.0
2018-Jun-15 10:49N 33°28' W 117°42'0 0.0
2018-Jun-15 08:39N 33°28' W 117°42'0 0.0
2018-Jun-15 08:26N 33°28' W 117°42'1 0.2
2018-Jun-15 04:14N 33°27' W 117°42'1 3.0
2018-Jun-15 03:58N 33°27' W 117°43'0 0.0
2018-Jun-15 03:26N 33°27' W 117°43'0 0.0
2018-Jun-15 02:27N 33°27' W 117°43'0 0.0
2018-Jun-15 02:00N 33°27' W 117°43'0 0.1
2018-Jun-15 01:05N 33°27' W 117°43'0 0.7
2018-Jun-15 00:49N 33°27' W 117°43'2 4.8
2018-Jun-15 00:30N 33°28' W 117°42'0 0.0
2018-Jun-14 23:58N 33°28' W 117°42'0 0.0
2018-Jun-14 23:30N 33°28' W 117°42'0 0.0
2018-Jun-14 23:00N 33°28' W 117°42'0 0.2
2018-Jun-14 22:31N 33°28' W 117°41'2 3.3
2018-Jun-14 22:00N 33°26' W 117°40'1 1.7
2018-Jun-14 21:30N 33°26' W 117°39'1 2.6
2018-Jun-14 21:00N 33°25' W 117°39'2 3.5
2018-Jun-14 20:30N 33°24' W 117°37'1 1.5
2018-Jun-14 19:58N 33°23' W 117°36'0 0.2
2018-Jun-14 19:28N 33°23' W 117°37'0 0.2
2018-Jun-14 18:59N 33°23' W 117°37'0 0.6
2018-Jun-14 18:30N 33°23' W 117°37'0 0.0
2018-Jun-14 18:00N 33°23' W 117°37'4 7.6
2018-Jun-14 17:30N 33°25' W 117°41'3 4.0
2018-Jun-14 16:47N 33°28' W 117°42'0 0.1
2018-Jun-14 16:03N 33°28' W 117°41'0 0.7
2018-Jun-14 15:54N 33°28' W 117°42'0 0.0
2018-Jun-14 15:17N 33°28' W 117°42'0 0.0
2018-Jun-14 14:54N 33°28' W 117°42'0 0.0
2018-Jun-14 14:15N 33°28' W 117°42'0 0.0
2018-Jun-14 14:00N 33°28' W 117°42'0 0.0
2018-Jun-14 13:29N 33°28' W 117°42'0 0.0
2018-Jun-14 13:00N 33°28' W 117°42'0 0.0
2018-Jun-14 12:30N 33°28' W 117°42'0 0.0
2018-Jun-14 11:46N 33°28' W 117°42'0 0.0
2018-Jun-14 11:11N 33°28' W 117°42'0 0.0
2018-Jun-14 10:58N 33°28' W 117°42'0 0.0
2018-Jun-14 10:27N 33°28' W 117°42'0 0.0
2018-Jun-14 09:41N 33°28' W 117°42'0 0.0
2018-Jun-14 09:28N 33°28' W 117°42'0 0.0
2018-Jun-14 08:59N 33°28' W 117°42'0 0.0
2018-Jun-14 08:30N 33°28' W 117°42'0 0.0
2018-Jun-14 07:58N 33°28' W 117°42'0 0.0
2018-Jun-14 07:28N 33°28' W 117°42'0 0.0
2018-Jun-14 06:27N 33°28' W 117°42'0 0.0
2018-Jun-14 06:00N 33°28' W 117°42'0 0.0
2018-Jun-14 05:18N 33°28' W 117°42'0 0.0
2018-Jun-14 04:58N 33°28' W 117°42'0 0.0
2018-Jun-14 04:30N 33°28' W 117°42'0 0.0
2018-Jun-14 03:58N 33°28' W 117°42'0 0.0
2018-Jun-14 03:30N 33°28' W 117°42'0 0.0
2018-Jun-14 03:00N 33°28' W 117°42'0 0.0
2018-Jun-14 02:31N 33°28' W 117°42'0 0.0
2018-Jun-14 02:00N 33°28' W 117°42'0 0.0
2018-Jun-14 01:30N 33°28' W 117°42'0 0.0
2018-Jun-14 01:01N 33°28' W 117°42'0 0.0
2018-Jun-14 00:30N 33°28' W 117°42'0 0.0
2018-Jun-14 00:00N 33°28' W 117°42'5 8.9
2018-Jun-13 23:30N 33°24' W 117°38'2 3.2
2018-Jun-13 22:56N 33°23' W 117°37'0 0.0
2018-Jun-13 22:30N 33°23' W 117°37'0 0.2
2018-Jun-13 22:00N 33°23' W 117°36'0 0.8
2018-Jun-13 21:31N 33°23' W 117°37'0 0.0
2018-Jun-13 21:01N 33°23' W 117°37'0 0.0
2018-Jun-13 20:30N 33°23' W 117°37'0 0.0
2018-Jun-13 20:00N 33°23' W 117°37'2 3.9
2018-Jun-13 19:30N 33°24' W 117°39'4 1.6
2018-Jun-13 16:53N 33°28' W 117°42'0 0.0
2018-Jun-13 16:30N 33°28' W 117°42'0 0.0
2018-Jun-13 16:00N 33°28' W 117°42'0 0.0
2018-Jun-13 15:31N 33°28' W 117°42'0 0.0
2018-Jun-13 14:59N 33°28' W 117°42'0 0.0
2018-Jun-13 14:26N 33°28' W 117°42'0 0.0
2018-Jun-13 13:39N 33°28' W 117°42'0 0.0
2018-Jun-13 13:30N 33°28' W 117°42'0 0.0
2018-Jun-13 13:00N 33°28' W 117°42'0 0.0
2018-Jun-13 12:29N 33°28' W 117°42'0 0.0
2018-Jun-13 12:00N 33°28' W 117°42'0 0.0
2018-Jun-13 11:31N 33°28' W 117°42'0 0.0
2018-Jun-13 11:00N 33°28' W 117°42'0 0.0
2018-Jun-13 10:30N 33°28' W 117°42'0 0.0
2018-Jun-13 10:01N 33°28' W 117°42'0 0.0
2018-Jun-13 09:04N 33°28' W 117°42'0 0.0
2018-Jun-13 09:00N 33°28' W 117°42'0 0.0
2018-Jun-13 08:31N 33°28' W 117°42'0 0.0
2018-Jun-13 08:00N 33°28' W 117°42'0 0.0
2018-Jun-13 07:27N 33°28' W 117°42'0 0.0
2018-Jun-13 06:59N 33°28' W 117°42'0 0.0
2018-Jun-13 05:29N 33°28' W 117°42'0 0.0
2018-Jun-13 04:57N 33°28' W 117°42'0 0.0
2018-Jun-13 02:10N 33°28' W 117°42'0 0.0
2018-Jun-13 02:00N 33°28' W 117°42'3 3.7
2018-Jun-13 01:17N 33°25' W 117°43'310.2
2018-Jun-13 00:59N 33°23' W 117°41'1 1.1
2018-Jun-13 00:30N 33°23' W 117°41'5 9.0
2018-Jun-13 00:00N 33°28' W 117°42'1 1.1
2018-Jun-12 23:17N 33°27' W 117°42'511.5
2018-Jun-12 22:52N 33°29' W 117°48'5 3.4
2018-Jun-12 21:23N 33°27' W 117°42'4 3.3
2018-Jun-12 20:06N 33°26' W 117°47'0 1.2
2018-Jun-12 20:01N 33°26' W 117°47'3 5.0
2018-Jun-12 19:24N 33°27' W 117°43'2 4.0
2018-Jun-12 18:59N 33°28' W 117°42'4 3.8
2018-Jun-12 17:52N 33°27' W 117°47'1 3.4
2018-Jun-12 17:26N 33°26' W 117°45'3 6.9
2018-Jun-12 16:59N 33°28' W 117°42'0 0.0
2018-Jun-12 16:31N 33°28' W 117°42'0 0.0
2018-Jun-12 16:01N 33°28' W 117°42'0 0.0
2018-Jun-12 15:27N 33°28' W 117°42'0 0.0
2018-Jun-12 15:01N 33°28' W 117°42'0 0.0
2018-Jun-12 14:30N 33°28' W 117°42'0 0.0
2018-Jun-12 13:51N 33°28' W 117°42'0 0.0
2018-Jun-12 13:24N 33°28' W 117°42'0 0.0
2018-Jun-12 12:41N 33°28' W 117°42'0 0.0
2018-Jun-12 12:31N 33°28' W 117°42'0 0.0
2018-Jun-12 11:41N 33°28' W 117°42'0 0.0
2018-Jun-12 11:12N 33°28' W 117°42'0 0.0
2018-Jun-12 09:41N 33°28' W 117°42'0 0.0
2018-Jun-12 09:30N 33°28' W 117°42'0 0.0
2018-Jun-12 08:59N 33°28' W 117°42'0 0.0
2018-Jun-12 08:30N 33°28' W 117°42'0 0.0
2018-Jun-12 08:00N 33°28' W 117°42'0 0.0
2018-Jun-12 07:31N 33°28' W 117°42'0 0.0
2018-Jun-12 07:00N 33°28' W 117°42'0 0.0
2018-Jun-12 06:31N 33°28' W 117°42'0 0.0
2018-Jun-12 06:00N 33°28' W 117°42'0 0.0
2018-Jun-12 05:30N 33°28' W 117°42'0 0.0
2018-Jun-12 05:00N 33°28' W 117°42'0 0.0
2018-Jun-12 04:20N 33°28' W 117°42'0 0.0
2018-Jun-12 04:00N 33°28' W 117°42'0 0.0
2018-Jun-12 03:30N 33°28' W 117°42'0 0.0
2018-Jun-12 02:59N 33°28' W 117°42'0 0.0
2018-Jun-12 02:30N 33°28' W 117°42'0 0.0
2018-Jun-12 02:00N 33°28' W 117°42'0 0.0
2018-Jun-12 01:30N 33°28' W 117°42'0 0.0
2018-Jun-12 00:56N 33°28' W 117°42'0 0.0
2018-Jun-12 00:30N 33°28' W 117°42'0 0.0
2018-Jun-11 23:33N 33°28' W 117°42'0 0.0
2018-Jun-11 23:30N 33°28' W 117°42'0 0.0
2018-Jun-11 22:18N 33°28' W 117°42'0 0.0
2018-Jun-11 21:59N 33°28' W 117°42'0 0.0
2018-Jun-11 21:22N 33°28' W 117°42'0 0.0
2018-Jun-11 19:14N 33°28' W 117°42'0 0.0
2018-Jun-11 18:57N 33°28' W 117°42'0 0.0
2018-Jun-11 18:30N 33°28' W 117°42'0 0.0
2018-Jun-11 18:00N 33°28' W 117°42'0 0.0
2018-Jun-11 17:29N 33°28' W 117°42'0 0.0
2018-Jun-11 16:59N 33°28' W 117°42'0 0.0
2018-Jun-11 16:27N 33°28' W 117°42'0 0.0
2018-Jun-11 16:00N 33°28' W 117°42'0 0.0
2018-Jun-11 15:28N 33°28' W 117°42'0 0.0
2018-Jun-11 15:00N 33°28' W 117°42'0 0.0
2018-Jun-11 14:30N 33°28' W 117°42'0 0.0
2018-Jun-11 13:57N 33°28' W 117°42'0 0.0
2018-Jun-11 13:24N 33°28' W 117°42'0 0.0
2018-Jun-11 12:56N 33°28' W 117°42'0 0.0
2018-Jun-11 12:29N 33°28' W 117°42'0 0.0
2018-Jun-11 11:22N 33°28' W 117°42'0 0.0
2018-Jun-11 11:00N 33°28' W 117°42'0 0.0
2018-Jun-11 10:29N 33°28' W 117°42'0 0.0
2018-Jun-11 10:00N 33°28' W 117°42'0 0.0
2018-Jun-11 09:29N 33°28' W 117°42'0 0.0
2018-Jun-11 08:14N 33°28' W 117°42'0 0.0
2018-Jun-11 07:58N 33°28' W 117°42'0 0.0
2018-Jun-11 07:29N 33°28' W 117°42'0 0.0
2018-Jun-11 07:00N 33°28' W 117°42'0 0.0
2018-Jun-11 06:30N 33°28' W 117°42'0 0.0
2018-Jun-11 06:00N 33°28' W 117°42'0 0.0
2018-Jun-11 05:30N 33°28' W 117°42'0 0.0
2018-Jun-11 05:01N 33°28' W 117°42'0 0.0
2018-Jun-11 04:30N 33°28' W 117°42'0 0.0
2018-Jun-11 04:00N 33°28' W 117°42'0 0.0
2018-Jun-11 03:30N 33°28' W 117°42'0 0.0
2018-Jun-11 03:01N 33°28' W 117°42'0 0.0
2018-Jun-11 02:31N 33°28' W 117°42'2 3.1
2018-Jun-11 01:47N 33°26' W 117°43'1 3.7
2018-Jun-11 01:30N 33°25' W 117°44'0 0.2
2018-Jun-11 01:00N 33°25' W 117°44'1 2.5
2018-Jun-11 00:26N 33°26' W 117°44'3 6.5
2018-Jun-10 23:59N 33°28' W 117°42'0 0.0
2018-Jun-10 23:30N 33°28' W 117°42'3 2.2
2018-Jun-10 22:07N 33°27' W 117°45'2 2.7
2018-Jun-10 21:27N 33°26' W 117°43'2 4.3
2018-Jun-10 20:53N 33°28' W 117°42'4 8.3
2018-Jun-10 20:21N 33°28' W 117°47'4 3.7
2018-Jun-10 19:18N 33°27' W 117°42'2 1.1
2018-Jun-10 17:51N 33°25' W 117°43'1 0.9
2018-Jun-10 17:17N 33°25' W 117°43'2 8.1
2018-Jun-10 17:00N 33°28' W 117°42'  
Track history (hours):
 
Tides and Currents Weather Stations Pressure Air Temp Water Temp Dewpoint Dewpoint Depression Visibility Wind Speed Wind Dir Waves Ship Positions

Dana Pride

Last reported at 2018-Jun-20 16:49 UTC. Time now 2018-Jun-20 17:22 UTC.
Position N 33°28' W 117°42'.

Type: Fishing. MMSI: 366849310.

Date/timePositionNaut miles runAvg speedWind from/ knotsBaromVisibWave heightAir tempDewpointWater temp
2018-Jun-20 16:49N 33°28' W 117°42'0 0.0
2018-Jun-20 16:25N 33°28' W 117°42'0 0.0
2018-Jun-20 08:06N 33°28' W 117°42'0 0.0
2018-Jun-20 05:53N 33°28' W 117°42'0 0.0
2018-Jun-20 05:13N 33°28' W 117°42'0 0.0
2018-Jun-20 04:08N 33°28' W 117°42'0 0.0
2018-Jun-20 03:56N 33°28' W 117°42'0 0.0
2018-Jun-20 03:27N 33°28' W 117°42'0 0.0
2018-Jun-20 02:59N 33°28' W 117°42'0 0.0
2018-Jun-20 02:24N 33°28' W 117°42'3 1.6
2018-Jun-20 00:30N 33°26' W 117°45'2 0.7
2018-Jun-19 21:24N 33°27' W 117°42'5 3.7
2018-Jun-19 20:11N 33°23' W 117°45'1 5.0
2018-Jun-19 19:59N 33°23' W 117°43'4 7.0
2018-Jun-19 19:29N 33°26' W 117°43'2 0.8
2018-Jun-19 16:59N 33°28' W 117°42'2 0.1
2018-Jun-18 21:50N 33°26' W 117°40'3 9.6
2018-Jun-18 21:30N 33°23' W 117°38'4 7.1
2018-Jun-18 21:00N 33°21' W 117°34'0 0.0
2018-Jun-18 20:30N 33°21' W 117°34'0 0.1
2018-Jun-18 20:00N 33°21' W 117°34'3 5.3
2018-Jun-18 19:30N 33°19' W 117°32'0 0.1
2018-Jun-18 19:00N 33°19' W 117°32'0 0.0
2018-Jun-18 18:30N 33°19' W 117°32'0 0.1
2018-Jun-18 18:00N 33°19' W 117°32'2 4.3
2018-Jun-18 17:30N 33°21' W 117°34'0 0.1
2018-Jun-18 17:00N 33°21' W 117°34'0 0.0
2018-Jun-18 16:30N 33°21' W 117°34'0 0.0
2018-Jun-18 16:00N 33°21' W 117°34'0 0.2
2018-Jun-18 15:30N 33°21' W 117°34'0 0.0
2018-Jun-18 15:00N 33°21' W 117°34'0 0.4
2018-Jun-18 14:30N 33°21' W 117°34'4 7.1
2018-Jun-18 14:00N 33°23' W 117°38'6 5.6
2018-Jun-18 12:59N 33°28' W 117°42'0 0.0
2018-Jun-18 12:10N 33°28' W 117°42'0 0.0
2018-Jun-18 11:55N 33°28' W 117°42'0 0.0
2018-Jun-18 11:24N 33°28' W 117°42'0 0.0
2018-Jun-18 10:58N 33°28' W 117°42'0 0.0
2018-Jun-18 10:30N 33°28' W 117°42'0 0.0
2018-Jun-18 09:59N 33°28' W 117°42'0 0.0
2018-Jun-18 09:26N 33°28' W 117°42'0 0.0
2018-Jun-18 08:56N 33°28' W 117°42'0 0.0
2018-Jun-18 08:29N 33°28' W 117°42'0 0.0
2018-Jun-18 08:00N 33°28' W 117°42'0 0.0
2018-Jun-18 07:17N 33°28' W 117°42'0 0.0
2018-Jun-18 07:00N 33°28' W 117°42'0 0.0
2018-Jun-18 05:43N 33°28' W 117°42'0 0.0
2018-Jun-18 05:25N 33°28' W 117°42'0 0.0
2018-Jun-18 04:53N 33°28' W 117°42'0 0.0
2018-Jun-18 04:29N 33°28' W 117°42'0 0.0
2018-Jun-18 03:56N 33°28' W 117°42'0 0.0
2018-Jun-18 03:30N 33°28' W 117°42'0 0.8
2018-Jun-18 02:56N 33°27' W 117°42'3 0.1
2018-Jun-16 23:31N 33°26' W 117°39'0 0.0
2018-Jun-16 23:30N 33°26' W 117°39'0 0.1
2018-Jun-16 22:56N 33°26' W 117°39'0 0.1
2018-Jun-16 22:23N 33°26' W 117°39'4 3.6
2018-Jun-16 21:23N 33°27' W 117°43'1 0.6
2018-Jun-16 19:23N 33°26' W 117°42'1 3.2
2018-Jun-16 18:56N 33°28' W 117°42'0 0.0
2018-Jun-16 13:41N 33°28' W 117°42'0 0.0
2018-Jun-16 13:29N 33°28' W 117°42'0 0.0
2018-Jun-16 12:59N 33°28' W 117°42'0 0.0
2018-Jun-16 12:29N 33°28' W 117°42'0 0.0
2018-Jun-16 12:00N 33°28' W 117°42'0 0.0
2018-Jun-16 11:29N 33°28' W 117°42'0 0.0
2018-Jun-16 11:00N 33°28' W 117°42'0 0.0
2018-Jun-16 10:28N 33°28' W 117°42'0 0.0
2018-Jun-16 09:51N 33°28' W 117°42'0 0.0
2018-Jun-16 09:21N 33°28' W 117°42'0 0.0
2018-Jun-16 08:45N 33°28' W 117°42'0 0.0
2018-Jun-16 02:29N 33°28' W 117°42'1 0.9
2018-Jun-16 01:48N 33°27' W 117°42'2 6.2
2018-Jun-16 01:30N 33°27' W 117°44'2 2.1
2018-Jun-16 00:46N 33°27' W 117°46'1 4.5
2018-Jun-16 00:30N 33°27' W 117°45'3 5.1
2018-Jun-16 00:00N 33°28' W 117°42'0 0.0
2018-Jun-15 23:13N 33°28' W 117°42'0 0.0
2018-Jun-15 23:00N 33°28' W 117°42'2 1.0
2018-Jun-15 21:16N 33°26' W 117°43'2 1.7
2018-Jun-15 20:15N 33°25' W 117°43'1 2.8
2018-Jun-15 19:43N 33°24' W 117°42'3 7.6
2018-Jun-15 19:20N 33°27' W 117°41'1 0.7
2018-Jun-15 17:16N 33°26' W 117°43'2 0.5
2018-Jun-15 13:35N 33°28' W 117°42'0 0.0
2018-Jun-15 13:14N 33°28' W 117°42'0 0.0
2018-Jun-15 12:40N 33°28' W 117°42'0 0.0
2018-Jun-15 12:13N 33°28' W 117°42'0 0.0
2018-Jun-15 11:48N 33°28' W 117°42'0 0.0
2018-Jun-15 10:49N 33°28' W 117°42'0 0.0
2018-Jun-15 08:39N 33°28' W 117°42'0 0.0
2018-Jun-15 08:26N 33°28' W 117°42'1 0.2
2018-Jun-15 04:14N 33°27' W 117°42'1 3.0
2018-Jun-15 03:58N 33°27' W 117°43'0 0.0
2018-Jun-15 03:26N 33°27' W 117°43'0 0.0
2018-Jun-15 02:27N 33°27' W 117°43'0 0.0
2018-Jun-15 02:00N 33°27' W 117°43'0 0.1
2018-Jun-15 01:05N 33°27' W 117°43'0 0.7
2018-Jun-15 00:49N 33°27' W 117°43'2 4.8
2018-Jun-15 00:30N 33°28' W 117°42'0 0.0
2018-Jun-14 23:58N 33°28' W 117°42'0 0.0
2018-Jun-14 23:30N 33°28' W 117°42'0 0.0
2018-Jun-14 23:00N 33°28' W 117°42'0 0.2
2018-Jun-14 22:31N 33°28' W 117°41'2 3.3
2018-Jun-14 22:00N 33°26' W 117°40'1 1.7
2018-Jun-14 21:30N 33°26' W 117°39'1 2.6
2018-Jun-14 21:00N 33°25' W 117°39'2 3.5
2018-Jun-14 20:30N 33°24' W 117°37'1 1.5
2018-Jun-14 19:58N 33°23' W 117°36'0 0.2
2018-Jun-14 19:28N 33°23' W 117°37'0 0.2
2018-Jun-14 18:59N 33°23' W 117°37'0 0.6
2018-Jun-14 18:30N 33°23' W 117°37'0 0.0
2018-Jun-14 18:00N 33°23' W 117°37'4 7.6
2018-Jun-14 17:30N 33°25' W 117°41'3 4.0
2018-Jun-14 16:47N 33°28' W 117°42'0 0.1
2018-Jun-14 16:03N 33°28' W 117°41'0 0.7
2018-Jun-14 15:54N 33°28' W 117°42'0 0.0
2018-Jun-14 15:17N 33°28' W 117°42'0 0.0
2018-Jun-14 14:54N 33°28' W 117°42'0 0.0
2018-Jun-14 14:15N 33°28' W 117°42'0 0.0
2018-Jun-14 14:00N 33°28' W 117°42'0 0.0
2018-Jun-14 13:29N 33°28' W 117°42'0 0.0
2018-Jun-14 13:00N 33°28' W 117°42'0 0.0
2018-Jun-14 12:30N 33°28' W 117°42'0 0.0
2018-Jun-14 11:46N 33°28' W 117°42'0 0.0
2018-Jun-14 11:11N 33°28' W 117°42'0 0.0
2018-Jun-14 10:58N 33°28' W 117°42'0 0.0
2018-Jun-14 10:27N 33°28' W 117°42'0 0.0
2018-Jun-14 09:41N 33°28' W 117°42'0 0.0
2018-Jun-14 09:28N 33°28' W 117°42'0 0.0
2018-Jun-14 08:59N 33°28' W 117°42'0 0.0
2018-Jun-14 08:30N 33°28' W 117°42'0 0.0
2018-Jun-14 07:58N 33°28' W 117°42'0 0.0
2018-Jun-14 07:28N 33°28' W 117°42'0 0.0
2018-Jun-14 06:27N 33°28' W 117°42'0 0.0
2018-Jun-14 06:00N 33°28' W 117°42'0 0.0
2018-Jun-14 05:18N 33°28' W 117°42'0 0.0
2018-Jun-14 04:58N 33°28' W 117°42'0 0.0
2018-Jun-14 04:30N 33°28' W 117°42'0 0.0
2018-Jun-14 03:58N 33°28' W 117°42'0 0.0
2018-Jun-14 03:30N 33°28' W 117°42'0 0.0
2018-Jun-14 03:00N 33°28' W 117°42'0 0.0
2018-Jun-14 02:31N 33°28' W 117°42'0 0.0
2018-Jun-14 02:00N 33°28' W 117°42'0 0.0
2018-Jun-14 01:30N 33°28' W 117°42'0 0.0
2018-Jun-14 01:01N 33°28' W 117°42'0 0.0
2018-Jun-14 00:30N 33°28' W 117°42'0 0.0
2018-Jun-14 00:00N 33°28' W 117°42'5 8.9
2018-Jun-13 23:30N 33°24' W 117°38'2 3.2
2018-Jun-13 22:56N 33°23' W 117°37'0 0.0
2018-Jun-13 22:30N 33°23' W 117°37'0 0.2
2018-Jun-13 22:00N 33°23' W 117°36'0 0.8
2018-Jun-13 21:31N 33°23' W 117°37'0 0.0
2018-Jun-13 21:01N 33°23' W 117°37'0 0.0
2018-Jun-13 20:30N 33°23' W 117°37'0 0.0
2018-Jun-13 20:00N 33°23' W 117°37'2 3.9
2018-Jun-13 19:30N 33°24' W 117°39'4 1.6
2018-Jun-13 16:53N 33°28' W 117°42'0 0.0
2018-Jun-13 16:30N 33°28' W 117°42'0 0.0
2018-Jun-13 16:00N 33°28' W 117°42'0 0.0
2018-Jun-13 15:31N 33°28' W 117°42'0 0.0
2018-Jun-13 14:59N 33°28' W 117°42'0 0.0
2018-Jun-13 14:26N 33°28' W 117°42'0 0.0
2018-Jun-13 13:39N 33°28' W 117°42'0 0.0
2018-Jun-13 13:30N 33°28' W 117°42'0 0.0
2018-Jun-13 13:00N 33°28' W 117°42'0 0.0
2018-Jun-13 12:29N 33°28' W 117°42'0 0.0
2018-Jun-13 12:00N 33°28' W 117°42'0 0.0
2018-Jun-13 11:31N 33°28' W 117°42'0 0.0
2018-Jun-13 11:00N 33°28' W 117°42'0 0.0
2018-Jun-13 10:30N 33°28' W 117°42'0 0.0
2018-Jun-13 10:01N 33°28' W 117°42'0 0.0
2018-Jun-13 09:04N 33°28' W 117°42'0 0.0
2018-Jun-13 09:00N 33°28' W 117°42'0 0.0
2018-Jun-13 08:31N 33°28' W 117°42'0 0.0
2018-Jun-13 08:00N 33°28' W 117°42'0 0.0
2018-Jun-13 07:27N 33°28' W 117°42'0 0.0
2018-Jun-13 06:59N 33°28' W 117°42'0 0.0
2018-Jun-13 05:29N 33°28' W 117°42'0 0.0
2018-Jun-13 04:57N 33°28' W 117°42'0 0.0
2018-Jun-13 02:10N 33°28' W 117°42'0 0.0
2018-Jun-13 02:00N 33°28' W 117°42'3 3.7
2018-Jun-13 01:17N 33°25' W 117°43'310.2
2018-Jun-13 00:59N 33°23' W 117°41'1 1.1
2018-Jun-13 00:30N 33°23' W 117°41'5 9.0
2018-Jun-13 00:00N 33°28' W 117°42'1 1.1
2018-Jun-12 23:17N 33°27' W 117°42'511.5
2018-Jun-12 22:52N 33°29' W 117°48'5 3.4
2018-Jun-12 21:23N 33°27' W 117°42'4 3.3
2018-Jun-12 20:06N 33°26' W 117°47'0 1.2
2018-Jun-12 20:01N 33°26' W 117°47'3 5.0
2018-Jun-12 19:24N 33°27' W 117°43'2 4.0
2018-Jun-12 18:59N 33°28' W 117°42'4 3.8
2018-Jun-12 17:52N 33°27' W 117°47'1 3.4
2018-Jun-12 17:26N 33°26' W 117°45'3 6.9
2018-Jun-12 16:59N 33°28' W 117°42'0 0.0
2018-Jun-12 16:31N 33°28' W 117°42'0 0.0
2018-Jun-12 16:01N 33°28' W 117°42'0 0.0
2018-Jun-12 15:27N 33°28' W 117°42'0 0.0
2018-Jun-12 15:01N 33°28' W 117°42'0 0.0
2018-Jun-12 14:30N 33°28' W 117°42'0 0.0
2018-Jun-12 13:51N 33°28' W 117°42'0 0.0
2018-Jun-12 13:24N 33°28' W 117°42'0 0.0
2018-Jun-12 12:41N 33°28' W 117°42'0 0.0
2018-Jun-12 12:31N 33°28' W 117°42'0 0.0
2018-Jun-12 11:41N 33°28' W 117°42'0 0.0
2018-Jun-12 11:12N 33°28' W 117°42'0 0.0
2018-Jun-12 09:41N 33°28' W 117°42'0 0.0
2018-Jun-12 09:30N 33°28' W 117°42'0 0.0
2018-Jun-12 08:59N 33°28' W 117°42'0 0.0
2018-Jun-12 08:30N 33°28' W 117°42'0 0.0
2018-Jun-12 08:00N 33°28' W 117°42'0 0.0
2018-Jun-12 07:31N 33°28' W 117°42'0 0.0
2018-Jun-12 07:00N 33°28' W 117°42'0 0.0
2018-Jun-12 06:31N 33°28' W 117°42'0 0.0
2018-Jun-12 06:00N 33°28' W 117°42'0 0.0
2018-Jun-12 05:30N 33°28' W 117°42'0 0.0
2018-Jun-12 05:00N 33°28' W 117°42'0 0.0
2018-Jun-12 04:20N 33°28' W 117°42'0 0.0
2018-Jun-12 04:00N 33°28' W 117°42'0 0.0
2018-Jun-12 03:30N 33°28' W 117°42'0 0.0
2018-Jun-12 02:59N 33°28' W 117°42'0 0.0
2018-Jun-12 02:30N 33°28' W 117°42'0 0.0
2018-Jun-12 02:00N 33°28' W 117°42'0 0.0
2018-Jun-12 01:30N 33°28' W 117°42'0 0.0
2018-Jun-12 00:56N 33°28' W 117°42'0 0.0
2018-Jun-12 00:30N 33°28' W 117°42'0 0.0
2018-Jun-11 23:33N 33°28' W 117°42'0 0.0
2018-Jun-11 23:30N 33°28' W 117°42'0 0.0
2018-Jun-11 22:18N 33°28' W 117°42'0 0.0
2018-Jun-11 21:59N 33°28' W 117°42'0 0.0
2018-Jun-11 21:22N 33°28' W 117°42'0 0.0
2018-Jun-11 19:14N 33°28' W 117°42'0 0.0
2018-Jun-11 18:57N 33°28' W 117°42'0 0.0
2018-Jun-11 18:30N 33°28' W 117°42'0 0.0
2018-Jun-11 18:00N 33°28' W 117°42'0 0.0
2018-Jun-11 17:29N 33°28' W 117°42'0 0.0
2018-Jun-11 16:59N 33°28' W 117°42'0 0.0
2018-Jun-11 16:27N 33°28' W 117°42'0 0.0
2018-Jun-11 16:00N 33°28' W 117°42'0 0.0
2018-Jun-11 15:28N 33°28' W 117°42'0 0.0
2018-Jun-11 15:00N 33°28' W 117°42'0 0.0
2018-Jun-11 14:30N 33°28' W 117°42'0 0.0
2018-Jun-11 13:57N 33°28' W 117°42'0 0.0
2018-Jun-11 13:24N 33°28' W 117°42'0 0.0
2018-Jun-11 12:56N 33°28' W 117°42'0 0.0
2018-Jun-11 12:29N 33°28' W 117°42'0 0.0
2018-Jun-11 11:22N 33°28' W 117°42'0 0.0
2018-Jun-11 11:00N 33°28' W 117°42'0 0.0
2018-Jun-11 10:29N 33°28' W 117°42'0 0.0
2018-Jun-11 10:00N 33°28' W 117°42'0 0.0
2018-Jun-11 09:29N 33°28' W 117°42'0 0.0
2018-Jun-11 08:14N 33°28' W 117°42'0 0.0
2018-Jun-11 07:58N 33°28' W 117°42'0 0.0
2018-Jun-11 07:29N 33°28' W 117°42'0 0.0
2018-Jun-11 07:00N 33°28' W 117°42'0 0.0
2018-Jun-11 06:30N 33°28' W 117°42'0 0.0
2018-Jun-11 06:00N 33°28' W 117°42'0 0.0
2018-Jun-11 05:30N 33°28' W 117°42'0 0.0
2018-Jun-11 05:01N 33°28' W 117°42'0 0.0
2018-Jun-11 04:30N 33°28' W 117°42'0 0.0
2018-Jun-11 04:00N 33°28' W 117°42'0 0.0
2018-Jun-11 03:30N 33°28' W 117°42'0 0.0
2018-Jun-11 03:01N 33°28' W 117°42'0 0.0
2018-Jun-11 02:31N 33°28' W 117°42'2 3.1
2018-Jun-11 01:47N 33°26' W 117°43'1 3.7
2018-Jun-11 01:30N 33°25' W 117°44'0 0.2
2018-Jun-11 01:00N 33°25' W 117°44'1 2.5
2018-Jun-11 00:26N 33°26' W 117°44'3 6.5
2018-Jun-10 23:59N 33°28' W 117°42'0 0.0
2018-Jun-10 23:30N 33°28' W 117°42'3 2.2
2018-Jun-10 22:07N 33°27' W 117°45'2 2.7
2018-Jun-10 21:27N 33°26' W 117°43'2 4.3
2018-Jun-10 20:53N 33°28' W 117°42'4 8.3
2018-Jun-10 20:21N 33°28' W 117°47'4 3.7
2018-Jun-10 19:18N 33°27' W 117°42'2 1.1
2018-Jun-10 17:51N 33°25' W 117°43'1 0.9
2018-Jun-10 17:17N 33°25' W 117°43'2 8.1
2018-Jun-10 17:00N 33°28' W 117°42'  

Dump ship's entire track history